createdAt,value
2019-02-10T00:04:19.466Z,4.30
2019-02-10T00:09:11.616Z,4.20
2019-02-10T00:14:04.221Z,4.03
2019-02-10T00:18:57.018Z,4.23
2019-02-10T00:23:49.376Z,3.50
2019-02-10T00:28:41.829Z,3.87
2019-02-10T00:33:34.792Z,3.87
2019-02-10T00:38:27.169Z,3.20
2019-02-10T00:43:19.452Z,2.60
2019-02-10T00:48:12.053Z,4.23
2019-02-10T00:53:04.785Z,3.53
2019-02-10T00:57:57.457Z,3.20
2019-02-10T01:02:49.717Z,3.47
2019-02-10T01:07:42.480Z,2.97
2019-02-10T01:12:35.130Z,3.97
2019-02-10T01:17:27.383Z,3.57
2019-02-10T01:22:19.793Z,3.87
2019-02-10T01:27:12.585Z,4.10
2019-02-10T01:32:05.084Z,3.57
2019-02-10T01:36:57.870Z,3.43
2019-02-10T01:41:50.307Z,3.60
2019-02-10T01:46:43.102Z,3.60
2019-02-10T01:51:35.688Z,3.17
2019-02-10T01:56:28.353Z,3.40
2019-02-10T02:01:20.505Z,3.83
2019-02-10T02:06:13.149Z,3.80
2019-02-10T02:11:05.681Z,3.97
2019-02-10T02:15:58.709Z,3.87
2019-02-10T02:20:51.720Z,3.70
2019-02-10T02:25:44.026Z,3.37
2019-02-10T02:30:36.635Z,3.47
2019-02-10T02:35:29.034Z,3.27
2019-02-10T02:40:23.326Z,3.33
2019-02-10T02:45:15.437Z,3.70
2019-02-10T02:50:11.916Z,6.13
2019-02-10T02:55:05.964Z,5.33
2019-02-10T02:59:58.638Z,3.43
2019-02-10T03:04:51.513Z,3.93
2019-02-10T03:09:44.041Z,3.53
2019-02-10T03:14:36.386Z,3.22
2019-02-10T03:19:28.859Z,3.55
2019-02-10T03:24:21.560Z,4.17
2019-02-10T03:29:13.773Z,3.60
2019-02-10T03:34:06.434Z,4.10
2019-02-10T03:38:59.319Z,3.70
2019-02-10T03:43:52.030Z,4.05
2019-02-10T03:48:44.378Z,4.40
2019-02-10T03:53:37.133Z,4.23
2019-02-10T03:58:29.774Z,3.70
2019-02-10T04:03:22.089Z,4.23
2019-02-10T04:08:14.505Z,3.87
2019-02-10T04:13:07.325Z,4.53
2019-02-10T04:18:00.048Z,4.10
2019-02-10T04:22:52.369Z,4.37
2019-02-10T04:27:44.668Z,4.33
2019-02-10T04:32:37.523Z,6.10
2019-02-10T04:37:29.880Z,4.77
2019-02-10T04:42:22.198Z,4.73
2019-02-10T04:47:14.956Z,4.77
2019-02-10T04:52:07.529Z,4.63
2019-02-10T04:57:00.085Z,4.67
2019-02-10T05:01:52.746Z,4.57
2019-02-10T05:07:04.592Z,4.70
2019-02-10T05:11:57.040Z,4.27
2019-02-10T05:16:49.579Z,4.20
2019-02-10T05:21:41.853Z,4.50
2019-02-10T05:26:34.294Z,3.87
2019-02-10T05:31:26.870Z,4.67
2019-02-10T05:36:19.491Z,5.37
2019-02-10T05:41:12.078Z,4.93
2019-02-10T05:46:04.443Z,3.72
2019-02-10T05:50:57.132Z,4.00
2019-02-10T05:55:49.487Z,3.80
2019-02-10T06:00:41.845Z,4.17
2019-02-10T06:05:34.661Z,3.33
2019-02-10T06:10:26.990Z,3.50
2019-02-10T06:15:19.413Z,3.60
2019-02-10T06:20:12.472Z,3.20
2019-02-10T06:25:07.282Z,3.03
2019-02-10T06:29:59.545Z,3.02
2019-02-10T06:34:52.045Z,2.90
2019-02-10T06:39:44.388Z,2.62
2019-02-10T06:44:36.830Z,2.95
2019-02-10T06:49:29.324Z,3.30
2019-02-10T06:54:21.718Z,3.60
2019-02-10T06:59:16.069Z,3.63
2019-02-10T07:04:12.365Z,3.30
2019-02-10T07:09:06.194Z,3.77
2019-02-10T07:13:59.308Z,3.90
2019-02-10T07:19:28.028Z,3.67
2019-02-10T07:24:35.704Z,3.70
2019-02-10T07:29:53.501Z,6.93
2019-02-10T07:34:52.177Z,4.43
2019-02-10T07:39:56.529Z,4.03
2019-02-10T07:45:16.571Z,3.85
2019-02-10T07:50:17.694Z,4.35
2019-02-10T07:55:34.818Z,4.67
2019-02-10T08:00:45.265Z,5.92
2019-02-10T08:05:54.789Z,5.50
2019-02-10T08:10:52.224Z,5.12
2019-02-10T08:15:50.314Z,5.00
2019-02-10T08:21:01.037Z,5.83
2019-02-10T08:25:59.031Z,5.53
2019-02-10T08:30:54.597Z,5.83
2019-02-10T08:36:02.118Z,5.67
2019-02-10T08:41:26.784Z,6.25
2019-02-10T08:46:22.158Z,6.37
2019-02-10T08:51:49.755Z,7.95
2019-02-10T08:56:42.361Z,5.40
2019-02-10T09:01:35.200Z,9.55
2019-02-10T09:06:27.770Z,9.28
2019-02-10T09:11:20.496Z,7.75
2019-02-10T09:16:13.229Z,5.25
2019-02-10T09:21:05.939Z,7.12
2019-02-10T09:25:58.228Z,6.20
2019-02-10T09:30:50.769Z,5.30
2019-02-10T09:35:43.286Z,4.37
2019-02-10T09:40:35.800Z,4.60
2019-02-10T09:45:28.660Z,4.20
2019-02-10T09:50:21.082Z,4.08
2019-02-10T09:55:13.926Z,4.75
2019-02-10T10:00:11.857Z,3.87
2019-02-10T10:05:05.404Z,3.70
2019-02-10T10:09:58.120Z,3.35
2019-02-10T10:14:50.897Z,3.20
2019-02-10T10:19:43.687Z,3.52
2019-02-10T10:24:36.262Z,3.90
2019-02-10T10:29:28.875Z,3.00
2019-02-10T10:34:21.580Z,3.37
2019-02-10T10:39:14.173Z,4.08
2019-02-10T10:44:06.593Z,5.15
2019-02-10T10:48:59.654Z,3.45
2019-02-10T10:53:52.253Z,4.17
2019-02-10T10:58:46.724Z,3.55
2019-02-10T11:03:39.087Z,3.30
2019-02-10T11:08:31.514Z,3.47
2019-02-10T11:13:23.940Z,4.58
2019-02-10T11:18:16.321Z,3.77
2019-02-10T11:23:09.397Z,3.95
2019-02-10T11:28:02.079Z,4.08
2019-02-10T11:32:55.094Z,6.87
2019-02-10T11:37:47.655Z,4.10
2019-02-10T11:42:39.990Z,3.72
2019-02-10T11:47:32.818Z,4.75
2019-02-10T11:52:25.817Z,4.85
2019-02-10T11:57:18.448Z,5.97
2019-02-10T12:02:11.177Z,5.50
2019-02-10T12:07:05.035Z,7.28
2019-02-10T12:11:57.969Z,8.08
2019-02-10T12:16:50.731Z,5.55
2019-02-10T12:21:43.805Z,4.75
2019-02-10T12:26:36.545Z,5.30
2019-02-10T12:31:29.528Z,6.40
2019-02-10T12:36:22.675Z,4.50
2019-02-10T12:41:17.263Z,4.92
2019-02-10T12:46:10.403Z,7.22
2019-02-10T12:51:03.279Z,6.92
2019-02-10T12:56:00.158Z,4.45
2019-02-10T13:01:10.948Z,3.80
2019-02-10T13:06:03.661Z,1.80
2019-02-10T13:10:56.731Z,3.08
2019-02-10T13:15:49.399Z,2.25
2019-02-10T13:20:41.747Z,2.10
2019-02-10T13:25:35.526Z,2.55
2019-02-10T13:30:28.242Z,1.55
2019-02-10T13:35:22.190Z,1.80
2019-02-10T13:40:19.668Z,2.10
2019-02-10T13:45:14.276Z,1.20
2019-02-10T13:50:11.412Z,1.27
2019-02-10T13:55:04.441Z,1.50
2019-02-10T13:59:56.812Z,2.60
2019-02-10T14:04:49.696Z,3.00
2019-02-10T14:09:43.222Z,4.50
2019-02-10T14:14:35.993Z,4.90
2019-02-10T14:19:28.719Z,5.40
2019-02-10T14:24:21.362Z,3.10
2019-02-10T14:29:14.024Z,2.37
2019-02-10T14:34:06.590Z,2.00
2019-02-10T14:38:59.204Z,1.60
2019-02-10T14:43:51.657Z,1.30
2019-02-10T14:48:44.327Z,2.10
2019-02-10T14:53:37.303Z,1.50
2019-02-10T14:58:30.131Z,1.27
2019-02-10T15:03:22.981Z,1.82
2019-02-10T15:08:15.840Z,2.03
2019-02-10T15:13:08.695Z,3.20
2019-02-10T15:18:01.323Z,2.07
2019-02-10T15:22:53.615Z,2.42
2019-02-10T15:27:47.659Z,7.07
2019-02-10T15:32:42.213Z,2.70
2019-02-10T15:37:34.787Z,2.07
2019-02-10T15:42:27.414Z,3.40
2019-02-10T15:47:20.449Z,2.20
2019-02-10T15:52:13.037Z,1.53
2019-02-10T15:57:09.104Z,6.90
2019-02-10T16:02:03.277Z,7.57
2019-02-10T16:06:55.549Z,3.90
2019-02-10T16:11:48.141Z,1.57
2019-02-10T16:16:40.868Z,1.60
2019-02-10T16:21:33.402Z,3.75
2019-02-10T16:26:25.761Z,2.50
2019-02-10T16:31:18.482Z,2.50
2019-02-10T16:36:11.258Z,2.27
2019-02-10T16:41:06.491Z,3.10
2019-02-10T16:45:59.136Z,2.37
2019-02-10T16:50:51.926Z,3.10
2019-02-10T16:55:44.346Z,1.80
2019-02-10T17:00:37.504Z,3.10
2019-02-10T17:05:29.765Z,2.47
2019-02-10T17:10:24.586Z,2.83
2019-02-10T17:15:17.069Z,3.07
2019-02-10T17:20:13.777Z,2.23
2019-02-10T17:25:08.788Z,3.10
2019-02-10T17:30:01.510Z,3.43
2019-02-10T17:34:53.836Z,2.90
2019-02-10T17:39:46.269Z,2.73
2019-02-10T17:44:39.157Z,2.60
2019-02-10T17:49:31.713Z,5.90
2019-02-10T17:54:24.277Z,3.13
2019-02-10T17:59:16.509Z,2.80
2019-02-10T18:04:08.889Z,3.27
2019-02-10T18:09:01.591Z,4.20
2019-02-10T18:13:53.968Z,1.80
2019-02-10T18:18:51.171Z,2.47
2019-02-10T18:23:51.017Z,1.70
2019-02-10T18:28:45.018Z,1.63
2019-02-10T18:33:39.379Z,1.80
2019-02-10T18:38:33.712Z,2.00
2019-02-10T18:43:49.051Z,2.40
2019-02-10T18:48:43.225Z,1.50
2019-02-10T18:53:43.190Z,3.43
2019-02-10T18:58:40.733Z,4.00
2019-02-10T19:03:54.238Z,3.47
2019-02-10T19:09:03.909Z,3.00
2019-02-10T19:13:55.413Z,3.13
2019-02-10T19:19:06.169Z,1.60
2019-02-10T19:24:16.858Z,2.60
2019-02-10T19:29:16.933Z,1.80
2019-02-10T19:34:11.257Z,2.00
2019-02-10T19:39:11.001Z,1.83
2019-02-10T19:44:20.090Z,1.93
2019-02-10T19:49:16.861Z,1.83
2019-02-10T19:54:28.991Z,1.70
2019-02-10T19:59:23.320Z,1.70
2019-02-10T20:04:17.361Z,1.90
2019-02-10T20:09:16.192Z,1.40
2019-02-10T20:14:12.700Z,1.70
2019-02-10T20:19:13.069Z,1.60
2019-02-10T20:24:23.705Z,1.60
2019-02-10T20:29:34.490Z,1.70
2019-02-10T20:34:45.060Z,1.67
2019-02-10T20:39:44.952Z,3.90
2019-02-10T20:44:45.294Z,2.73
2019-02-10T20:49:41.954Z,4.97
2019-02-10T20:54:38.927Z,5.77
2019-02-10T20:59:49.473Z,5.30
2019-02-10T21:04:43.448Z,4.17
2019-02-10T21:09:43.833Z,3.67
2019-02-10T21:14:56.110Z,10.73
2019-02-10T21:20:05.267Z,7.37
2019-02-10T21:24:59.285Z,6.43
2019-02-10T21:30:10.001Z,8.43
2019-02-10T21:35:07.128Z,2.70
2019-02-10T21:40:01.089Z,3.00
2019-02-10T21:45:11.794Z,2.50
2019-02-10T21:50:06.976Z,4.00
2019-02-10T21:54:59.313Z,3.13
2019-02-10T21:59:51.880Z,2.80
2019-02-10T22:04:44.311Z,2.90
2019-02-10T22:09:37.408Z,3.13
2019-02-10T22:14:29.702Z,2.60
2019-02-10T22:19:22.200Z,2.67
2019-02-10T22:24:14.725Z,2.80
2019-02-10T22:29:08.091Z,2.57
2019-02-10T22:34:01.815Z,3.03
2019-02-10T22:43:54.603Z,2.90
2019-02-10T22:54:05.749Z,2.90
2019-02-10T22:58:59.051Z,2.67
2019-02-10T23:03:51.945Z,2.87
2019-02-10T23:08:44.866Z,2.40
2019-02-10T23:13:37.681Z,2.70
2019-02-10T23:18:31.081Z,3.20
2019-02-10T23:23:26.754Z,3.43
2019-02-10T23:28:19.681Z,4.43
2019-02-10T23:33:12.661Z,3.60
2019-02-10T23:38:05.780Z,3.97
2019-02-10T23:43:02.036Z,5.80
2019-02-10T23:47:56.113Z,6.77
2019-02-10T23:52:49.292Z,6.50
2019-02-10T23:57:41.845Z,8.83
